Time;durP1;ratioP1;P1;durP2;ratioP2;P2;SDS_P1;SDS_P2;PMS_P1;PMS_P2;Temp;Humidity;BMP_temperature;BMP_pressure;BME280_temperature;BME280_humidity;BME280_pressure;Samples;Min_cycle;Max_cycle;Signal;HPM_P1;HPM_P2
2022/04/01 00:01:22;;;;;;;49.95;23.63;;;;;;;10.60;100.00;97746.63;4884480;29;20060;-75
2022/04/01 00:03:50;;;;;;;45.35;23.90;;;;;;;10.54;100.00;97740.09;4884306;29;20108;-73
2022/04/01 00:06:18;;;;;;;42.90;23.63;;;;;;;10.48;100.00;97742.50;4901274;29;20040;-73
2022/04/01 00:08:47;;;;;;;48.58;24.33;;;;;;;10.56;100.00;97742.59;4901062;29;20108;-76
2022/04/01 00:11:16;;;;;;;57.28;24.98;;;;;;;10.47;100.00;97749.66;4901288;29;20087;-76
2022/04/01 00:13:46;;;;;;;51.22;24.05;;;;;;;10.45;100.00;97749.00;4883765;29;20136;-76
2022/04/01 00:16:15;;;;;;;49.85;24.77;;;;;;;10.39;100.00;97741.59;4900893;29;20052;-74
2022/04/01 00:18:43;;;;;;;51.50;26.38;;;;;;;10.40;100.00;97745.09;4900690;29;20083;-75
2022/04/01 00:21:12;;;;;;;52.90;25.50;;;;;;;10.45;100.00;97742.81;4900169;29;20061;-74
2022/04/01 00:23:40;;;;;;;44.15;24.63;;;;;;;10.42;100.00;97743.97;4900043;29;20051;-75
2022/04/01 00:26:09;;;;;;;49.42;23.73;;;;;;;10.54;100.00;97737.41;4900858;29;20418;-75
2022/04/01 00:28:38;;;;;;;48.47;24.58;;;;;;;10.54;100.00;97731.25;4900929;29;20056;-75
2022/04/01 00:31:09;;;;;;;49.30;25.33;;;;;;;10.50;100.00;97735.19;4900850;29;20041;-74
2022/04/01 00:33:37;;;;;;;52.55;24.85;;;;;;;10.46;100.00;97736.50;4900619;29;20076;-74
2022/04/01 00:36:06;;;;;;;51.30;25.25;;;;;;;10.48;100.00;97731.84;4900835;29;20056;-74
2022/04/01 00:38:34;;;;;;;50.55;25.90;;;;;;;10.50;100.00;97732.53;4900223;29;20055;-73
2022/04/01 00:41:03;;;;;;;51.03;24.27;;;;;;;10.68;100.00;97720.03;4900013;29;20454;-71
2022/04/01 00:43:34;;;;;;;55.58;24.65;;;;;;;10.69;100.00;97719.03;4899902;29;20045;-71
2022/04/01 00:46:02;;;;;;;56.75;25.40;;;;;;;10.55;100.00;97720.44;4900235;29;20052;-72
2022/04/01 00:48:32;;;;;;;55.70;25.58;;;;;;;10.52;100.00;97719.91;4899726;29;20047;-71
2022/04/01 00:51:00;;;;;;;50.13;24.90;;;;;;;10.45;100.00;97719.69;4899895;29;20044;-71
2022/04/01 00:53:30;;;;;;;48.10;25.42;;;;;;;10.45;100.00;97716.19;4899627;29;20101;-74
2022/04/01 00:55:59;;;;;;;51.28;23.73;;;;;;;10.51;100.00;97715.53;4899691;29;20463;-71
2022/04/01 00:58:28;;;;;;;46.67;25.85;;;;;;;10.49;100.00;97709.53;4899910;29;20083;-72
2022/04/01 01:00:57;;;;;;;62.53;25.33;;;;;;;10.41;100.00;97701.47;4899739;29;20049;-72
2022/04/01 01:03:26;;;;;;;52.72;24.27;;;;;;;10.39;100.00;97714.09;4899600;29;20490;-72
2022/04/01 01:05:57;;;;;;;60.03;25.30;;;;;;;10.30;100.00;97727.34;4882951;29;20056;-73
2022/04/01 01:08:26;;;;;;;59.30;24.13;;;;;;;10.29;100.00;97728.34;4899983;29;20052;-73
2022/04/01 01:10:55;;;;;;;53.20;26.20;;;;;;;10.34;100.00;97727.06;4899495;29;20501;-73
2022/04/01 01:13:23;;;;;;;53.50;25.70;;;;;;;10.34;100.00;97724.41;4899690;29;20102;-73
2022/04/01 01:15:53;;;;;;;59.38;24.75;;;;;;;10.31;100.00;97726.34;4899175;29;20076;-73
2022/04/01 01:18:21;;;;;;;65.28;26.45;;;;;;;10.40;100.00;97719.28;4899452;29;20048;-73
2022/04/01 01:20:49;;;;;;;54.17;25.13;;;;;;;10.49;100.00;97720.19;4899058;29;20913;-73
2022/04/01 01:23:19;;;;;;;54.47;24.20;;;;;;;10.45;100.00;97724.16;4882953;29;20049;-72
2022/04/01 01:25:49;;;;;;;64.28;25.45;;;;;;;10.39;100.00;97716.78;4898893;29;20416;-71
2022/04/01 01:28:17;;;;;;;52.60;24.55;;;;;;;10.41;100.00;97720.13;4899182;29;20161;-72
2022/04/01 01:30:46;;;;;;;70.25;26.27;;;;;;;10.35;100.00;97715.41;4898884;29;20044;-72
2022/04/01 01:33:15;;;;;;;71.95;26.73;;;;;;;10.33;100.00;97720.91;4898986;29;20068;-71
2022/04/01 01:35:44;;;;;;;64.10;25.02;;;;;;;10.42;100.00;97719.13;4899076;29;20041;-72
2022/04/01 01:38:12;;;;;;;56.67;25.50;;;;;;;10.48;100.00;97721.19;4899191;29;20438;-71
2022/04/01 01:40:42;;;;;;;57.15;26.30;;;;;;;10.42;100.00;97724.44;4898684;29;20593;-72
2022/04/01 01:43:12;;;;;;;52.78;25.45;;;;;;;10.36;100.00;97720.59;4899033;29;20052;-72
2022/04/01 01:45:40;;;;;;;54.95;24.92;;;;;;;10.38;100.00;97718.59;4898461;29;20140;-72
2022/04/01 01:48:09;;;;;;;67.88;24.60;;;;;;;10.35;100.00;97716.25;4898821;29;20055;-71
2022/04/01 01:56:09;;;;;;;55.92;26.35;;;;;;;10.33;100.00;97720.91;4898863;29;20045;-72
2022/04/01 01:58:39;;;;;;;65.50;26.65;;;;;;;10.36;100.00;97715.25;4898542;29;20058;-72
2022/04/01 02:01:07;;;;;;;69.10;26.02;;;;;;;10.35;100.00;97715.41;4898597;29;20402;-71
2022/04/01 02:03:36;;;;;;;66.85;27.50;;;;;;;10.34;100.00;97711.09;4898620;29;20375;-72
2022/04/01 02:06:05;;;;;;;70.05;27.83;;;;;;;10.30;100.00;97711.38;4898575;29;20052;-70
2022/04/01 02:08:33;;;;;;;61.15;27.05;;;;;;;10.31;100.00;97702.38;4898773;29;20448;-74
2022/04/01 02:11:02;;;;;;;62.10;26.80;;;;;;;10.44;100.00;97695.84;4898833;29;20131;-72
2022/04/01 02:13:31;;;;;;;66.60;26.52;;;;;;;10.41;100.00;97699.63;4898620;29;20475;-72
2022/04/01 02:16:01;;;;;;;68.20;27.45;;;;;;;10.41;100.00;97696.13;4898371;29;20055;-72
2022/04/01 02:18:30;;;;;;;95.15;26.95;;;;;;;10.45;100.00;97698.34;4898403;29;20048;-72
2022/04/01 02:20:58;;;;;;;69.65;27.73;;;;;;;10.44;100.00;97703.84;4898046;29;20088;-72
2022/04/01 02:23:26;;;;;;;76.93;27.88;;;;;;;10.55;100.00;97703.59;4898472;29;20048;-72
2022/04/01 02:25:55;;;;;;;59.20;27.65;;;;;;;10.51;100.00;97697.72;4897947;29;20104;-73
2022/04/01 02:28:23;;;;;;;62.53;28.55;;;;;;;10.51;100.00;97700.38;4898363;29;20195;-72
2022/04/01 02:30:51;;;;;;;63.33;26.92;;;;;;;10.58;100.00;97695.28;4897971;29;20041;-73
2022/04/01 02:33:21;;;;;;;98.15;27.80;;;;;;;10.58;100.00;97692.63;4898178;29;20130;-72
2022/04/01 02:35:50;;;;;;;68.53;25.75;;;;;;;10.53;100.00;97694.94;4897731;29;20041;-72
2022/04/01 02:38:18;;;;;;;75.72;26.25;;;;;;;10.50;100.00;97689.88;4898228;29;20123;-72
2022/04/01 02:40:47;;;;;;;60.42;26.42;;;;;;;10.50;100.00;97689.88;4897817;29;20436;-72
2022/04/01 02:43:15;;;;;;;84.00;25.42;;;;;;;10.44;100.00;97695.84;4897995;29;20048;-71
2022/04/01 02:45:44;;;;;;;65.35;25.33;;;;;;;10.36;100.00;97695.78;4897149;29;20092;-72
2022/04/01 02:48:14;;;;;;;60.05;25.60;;;;;;;10.35;100.00;97691.44;4898195;29;20049;-72
2022/04/01 02:50:45;;;;;;;59.33;26.15;;;;;;;10.32;100.00;97688.06;4898021;29;20132;-72
2022/04/01 02:53:16;;;;;;;46.95;24.00;;;;;;;10.47;100.00;97668.88;4898064;29;20045;-72
2022/04/01 02:55:47;;;;;;;39.15;22.25;;;;;;;10.52;100.00;97655.94;4897552;29;20053;-73
2022/04/01 02:58:16;;;;;;;41.22;21.92;;;;;;;10.55;100.00;97666.28;4897983;29;20049;-72
2022/04/01 03:00:45;;;;;;;38.72;22.30;;;;;;;10.43;100.00;97672.84;4897494;29;20052;-71
2022/04/01 03:03:14;;;;;;;41.20;22.38;;;;;;;10.38;100.00;97675.13;4898013;29;20048;-71
2022/04/01 03:05:44;;;;;;;38.17;22.27;;;;;;;10.34;100.00;97671.94;4897874;29;20127;-70
2022/04/01 03:08:12;;;;;;;38.35;21.98;;;;;;;10.40;100.00;97667.81;4898106;29;20550;-71
2022/04/01 03:10:43;;;;;;;37.55;20.92;;;;;;;10.56;100.00;97663.47;4880617;29;20060;-71
2022/04/01 03:13:12;;;;;;;35.05;20.25;;;;;;;10.47;100.00;97671.53;4897841;29;20037;-69
2022/04/01 03:15:40;;;;;;;35.25;18.88;;;;;;;10.43;100.00;97675.53;4897645;29;20049;-70
2022/04/01 03:18:09;;;;;;;35.13;19.77;;;;;;;10.38;100.00;97675.97;4897773;29;20055;-70
2022/04/01 03:20:38;;;;;;;32.95;19.02;;;;;;;10.40;100.00;97673.16;4897443;29;20127;-75
2022/04/01 03:23:07;;;;;;;31.48;19.30;;;;;;;10.52;100.00;97678.09;4897876;29;20048;-74
2022/04/01 03:25:36;;;;;;;33.30;19.08;;;;;;;10.44;100.00;97677.19;4881296;29;20056;-74
2022/04/01 03:28:07;;;;;;;35.97;19.60;;;;;;;10.38;100.00;97681.31;4897650;29;20097;-73
2022/04/01 03:30:36;;;;;;;32.25;19.02;;;;;;;10.50;100.00;97679.22;4897979;29;20387;-73
2022/04/01 03:33:05;;;;;;;32.60;20.33;;;;;;;10.51;100.00;97684.41;4898016;29;20048;-73
2022/04/01 03:35:33;;;;;;;32.95;20.52;;;;;;;10.47;100.00;97698.19;4897957;29;20406;-73
2022/04/01 03:38:04;;;;;;;36.40;20.35;;;;;;;10.45;100.00;97702.84;4897510;29;20049;-74
2022/04/01 03:40:38;;;;;;;32.45;20.48;;;;;;;10.45;100.00;97692.19;4897977;29;20040;-73
2022/04/01 03:43:06;;;;;;;35.35;19.23;;;;;;;10.46;100.00;97677.88;4898017;29;20045;-75
2022/04/01 03:45:35;;;;;;;30.17;20.00;;;;;;;10.52;100.00;97674.59;4898181;29;20052;-75
2022/04/01 03:48:11;;;;;;;32.10;19.38;;;;;;;10.42;100.00;97671.16;4896974;29;20080;-75
2022/04/01 03:50:44;;;;;;;29.52;18.85;;;;;;;10.52;100.00;97678.09;4897998;29;20071;-75
2022/04/01 03:53:14;;;;;;;27.43;18.73;;;;;;;10.55;100.00;97682.28;4881731;29;20422;-74
2022/04/01 03:55:47;;;;;;;29.02;18.38;;;;;;;10.54;100.00;97672.63;4897363;29;20045;-74
2022/04/01 03:58:19;;;;;;;33.17;19.90;;;;;;;10.51;100.00;97680.91;4901070;29;20080;-73
2022/04/01 04:00:48;;;;;;;33.20;20.08;;;;;;;10.49;100.00;97678.38;4900964;29;20052;-74
2022/04/01 04:03:17;;;;;;;34.92;20.20;;;;;;;10.53;100.00;97679.78;4900849;29;20509;-73
2022/04/01 04:05:49;;;;;;;30.77;20.17;;;;;;;10.54;100.00;97680.59;4900525;29;20044;-73
2022/04/01 04:08:19;;;;;;;31.70;20.35;;;;;;;10.56;100.00;97670.63;4901050;29;20060;-73
2022/04/01 04:10:51;;;;;;;38.13;23.45;;;;;;;10.54;100.00;97669.94;4900578;29;20128;-73
2022/04/01 04:13:22;;;;;;;37.97;23.40;;;;;;;10.59;100.00;97667.63;4901010;29;20048;-72
2022/04/01 04:15:57;;;;;;;39.92;23.58;;;;;;;10.63;100.00;97663.69;4900569;29;20044;-74
2022/04/01 04:18:33;;;;;;;42.20;24.00;;;;;;;10.63;100.00;97669.03;4900624;29;20478;-72
2022/04/01 04:21:11;;;;;;;39.80;24.05;;;;;;;10.62;100.00;97674.50;4900532;29;20060;-72
2022/04/01 04:23:45;;;;;;;37.58;22.55;;;;;;;10.61;100.00;97676.31;4900598;29;20474;-71
2022/04/01 04:26:23;;;;;;;34.85;21.48;;;;;;;10.67;100.00;97669.53;4900028;29;20040;-71
2022/04/01 04:28:59;;;;;;;33.60;21.25;;;;;;;10.68;100.00;97657.88;4900408;29;20141;-71
2022/04/01 04:31:34;;;;;;;33.90;20.55;;;;;;;10.70;100.00;97640.72;4900293;29;20553;-73
2022/04/01 04:34:04;;;;;;;28.58;19.17;;;;;;;10.95;100.00;97640.88;4900134;29;20044;-74
2022/04/01 04:36:38;;;;;;;31.75;19.17;;;;;;;10.94;100.00;97640.06;4900405;29;20060;-74
2022/04/01 04:39:08;;;;;;;31.27;19.77;;;;;;;10.80;100.00;97643.28;4883761;29;20115;-74
2022/04/01 04:41:39;;;;;;;32.35;19.60;;;;;;;10.72;100.00;97649.44;4900394;29;20402;-73
2022/04/01 04:44:09;;;;;;;34.33;22.20;;;;;;;10.63;100.00;97647.69;4900580;29;20056;-75
2022/04/01 04:46:40;;;;;;;35.42;20.88;;;;;;;10.68;100.00;97645.38;4900809;29;20073;-75
2022/04/01 04:49:10;;;;;;;34.80;21.27;;;;;;;10.73;100.00;97651.09;4900580;29;20056;-77
2022/04/01 04:51:46;;;;;;;32.88;20.98;;;;;;;10.67;100.00;97657.03;4900085;29;20067;-76
2022/04/01 04:54:15;;;;;;;29.95;20.23;;;;;;;10.70;100.00;97654.06;4900447;29;20418;-74
2022/04/01 04:56:45;;;;;;;32.50;20.73;;;;;;;10.75;100.00;97653.59;4899655;29;20056;-75
2022/04/01 04:59:14;;;;;;;30.92;20.42;;;;;;;10.72;100.00;97651.25;4899958;29;20123;-72
2022/04/01 05:01:50;;;;;;;29.60;20.10;;;;;;;10.70;100.00;97664.72;4899053;29;20458;-73
2022/04/01 05:04:47;;;;;;;33.97;20.92;;;;;;;10.70;100.00;97670.06;4899894;29;20048;-72
2022/04/01 05:07:31;;;;;;;30.90;20.60;;;;;;;10.77;100.00;97665.78;4899412;29;20048;-73
2022/04/01 05:10:05;;;;;;;32.83;20.60;;;;;;;10.80;100.00;97662.78;4898942;29;20051;-76
2022/04/01 05:12:45;;;;;;;31.70;19.52;;;;;;;10.80;100.00;97654.78;4899917;29;20071;-76
2022/04/01 05:15:18;;;;;;;31.10;20.08;;;;;;;10.85;100.00;97662.34;4899344;29;20478;-73
2022/04/01 05:17:54;;;;;;;31.92;19.30;;;;;;;10.91;100.00;97668.88;4899188;29;20100;-74
2022/04/01 05:20:28;;;;;;;33.67;20.15;;;;;;;10.88;100.00;97667.34;4899370;29;20072;-74
2022/04/01 05:23:06;;;;;;;32.50;21.23;;;;;;;10.83;100.00;97680.31;4899413;29;20092;-74
2022/04/01 05:25:41;;;;;;;30.08;19.70;;;;;;;10.86;100.00;97686.16;4900290;29;20131;-76
2022/04/01 05:28:22;;;;;;;28.98;19.98;;;;;;;10.83;100.00;97681.16;4900041;29;20048;-73
2022/04/01 05:31:02;;;;;;;29.27;20.10;;;;;;;10.80;100.00;97680.63;4899172;29;20056;-74
2022/04/01 05:33:46;;;;;;;30.58;19.67;;;;;;;10.91;100.00;97671.56;4883962;29;20052;-74
2022/04/01 05:36:17;;;;;;;26.93;18.83;;;;;;;11.12;100.00;97669.34;4899354;29;20044;-77
2022/04/01 05:38:47;;;;;;;22.90;16.08;;;;;;;11.11;100.00;97673.84;4898912;29;20044;-78
2022/04/01 05:41:19;;;;;;;25.77;16.25;;;;;;;11.11;100.00;97675.66;4899097;29;20048;-76
2022/04/01 05:43:50;;;;;;;21.75;14.77;;;;;;;11.07;100.00;97676.97;4898705;29;20044;-76
2022/04/01 05:46:23;;;;;;;22.27;14.02;;;;;;;11.00;100.00;97682.13;4899210;29;20049;-75
2022/04/01 05:48:53;;;;;;;;;;;;;;;11.09;100.00;97674.97;4882485;29;20048;-75
2022/04/01 05:51:24;;;;;;;16.13;12.13;;;;;;;11.02;100.00;97661.44;4898971;29;19923;-78
2022/04/01 05:53:54;;;;;;;18.30;11.93;;;;;;;10.96;100.00;97666.56;4889759;29;20549;-77
2022/04/01 05:56:23;;;;;;;17.90;12.27;;;;;;;10.93;100.00;97674.88;4898437;29;20493;-77
2022/04/01 05:58:53;;;;;;;17.50;12.73;;;;;;;10.99;100.00;97668.91;4898220;29;20044;-78
2022/04/01 06:01:31;;;;;;;19.73;12.88;;;;;;;10.93;100.00;97675.72;4898655;29;20044;-77
2022/04/01 06:04:38;;;;;;;18.90;12.52;;;;;;;10.89;100.00;97680.50;4898032;29;20052;-74
2022/04/01 06:07:10;;;;;;;19.23;12.80;;;;;;;10.85;100.00;97678.34;4898321;29;20056;-76
2022/04/01 06:09:53;;;;;;;20.23;13.30;;;;;;;10.86;100.00;97670.16;4882258;29;20094;-76
2022/04/01 06:12:29;;;;;;;18.53;12.53;;;;;;;10.83;100.00;97675.00;4898406;29;20048;-76
2022/04/01 06:15:07;;;;;;;19.35;11.55;;;;;;;10.91;100.00;97676.88;4898263;29;20402;-75
2022/04/01 06:17:43;;;;;;;19.20;11.95;;;;;;;10.80;100.00;97673.44;4898382;29;20123;-77
2022/04/01 06:20:14;;;;;;;17.17;11.68;;;;;;;10.90;100.00;97670.69;4897039;29;20052;-76
2022/04/01 06:22:50;;;;;;;16.75;11.98;;;;;;;10.78;100.00;97664.78;4898434;29;20051;-77
2022/04/01 06:25:23;;;;;;;17.90;11.70;;;;;;;10.84;100.00;97674.84;4898539;29;20068;-76
2022/04/01 06:28:01;;;;;;;17.02;11.38;;;;;;;10.87;100.00;97671.84;4897466;29;20119;-77
2022/04/01 06:30:32;;;;;;;16.33;10.45;;;;;;;10.83;100.00;97673.16;4898037;29;20048;-79
2022/04/01 06:33:09;;;;;;;16.10;10.95;;;;;;;10.85;100.00;97673.84;4897666;29;20569;-79
2022/04/01 06:35:45;;;;;;;15.70;10.32;;;;;;;10.89;100.00;97669.84;4897970;29;20475;-78
2022/04/01 06:38:21;;;;;;;18.88;11.65;;;;;;;10.81;100.00;97672.50;4897901;29;20540;-78
2022/04/01 06:40:56;;;;;;;17.90;11.27;;;;;;;10.81;100.00;97674.31;4897801;29;20055;-78
2022/04/01 06:43:25;;;;;;;15.73;10.63;;;;;;;10.79;100.00;97679.78;4897792;29;20506;-78
2022/04/01 06:45:56;;;;;;;16.15;11.05;;;;;;;10.85;100.00;97673.84;4901051;29;20047;-78
2022/04/01 06:48:24;;;;;;;15.68;10.93;;;;;;;10.80;100.00;97670.78;4905163;29;20044;-77
2022/04/01 06:50:55;;;;;;;13.73;9.65;;;;;;;10.82;100.00;97673.31;4897915;29;20059;-78
2022/04/01 06:53:24;;;;;;;16.08;10.95;;;;;;;10.81;100.00;97669.81;4899008;29;20044;-76
2022/04/01 06:55:53;;;;;;;16.45;10.70;;;;;;;10.75;100.00;97681.09;4904546;29;20108;-78
2022/04/01 06:58:26;;;;;;;17.27;11.15;;;;;;;10.76;100.00;97692.59;4905440;29;20056;-77
2022/04/01 07:00:56;;;;;;;15.65;10.73;;;;;;;10.73;100.00;97699.09;4904873;29;20040;-79
2022/04/01 07:03:24;;;;;;;15.38;10.90;;;;;;;10.68;100.00;97695.19;4905992;29;20379;-77
2022/04/01 07:05:55;;;;;;;17.08;11.35;;;;;;;10.70;100.00;97698.53;4906619;29;20122;-76
2022/04/01 07:08:23;;;;;;;18.92;12.68;;;;;;;10.71;100.00;97689.53;4902580;29;20056;-75
2022/04/01 07:10:53;;;;;;;16.55;11.77;;;;;;;10.79;100.00;97695.78;4897445;29;20077;-77
2022/04/01 07:13:21;;;;;;;18.02;12.85;;;;;;;10.68;100.00;97690.69;4897612;29;20048;-75
2022/04/01 07:15:50;;;;;;;18.67;12.10;;;;;;;10.68;100.00;97682.69;4900742;29;20044;-76
2022/04/01 07:18:21;;;;;;;15.98;11.23;;;;;;;10.84;100.00;97692.66;4916330;29;20469;-77
2022/04/01 07:20:52;;;;;;;14.18;9.75;;;;;;;10.71;100.00;97671.75;4898968;29;20454;-75
2022/04/01 07:23:21;;;;;;;12.50;9.55;;;;;;;10.81;100.00;97692.97;4897279;29;20100;-76
2022/04/01 07:25:49;;;;;;;13.68;9.48;;;;;;;10.75;100.00;97699.75;4897246;29;20056;-76
2022/04/01 07:28:21;;;;;;;15.48;9.90;;;;;;;10.79;100.00;97697.59;4897697;29;20076;-75
2022/04/01 07:30:51;;;;;;;13.43;9.63;;;;;;;10.68;100.00;97693.38;4897852;29;20125;-78
2022/04/01 07:33:21;;;;;;;14.73;10.27;;;;;;;10.88;100.00;97684.19;4900528;29;20131;-77
2022/04/01 07:35:50;;;;;;;13.52;9.90;;;;;;;10.96;100.00;97687.91;4900941;29;20096;-75
2022/04/01 07:38:19;;;;;;;13.55;10.07;;;;;;;10.80;100.00;97678.78;4901035;29;20060;-81
2022/04/01 07:40:47;;;;;;;13.55;9.25;;;;;;;10.66;100.00;97679.38;4901119;29;20052;-83
2022/04/01 07:43:16;;;;;;;14.48;9.65;;;;;;;10.79;100.00;97682.44;4881786;29;20052;-77
2022/04/01 07:45:44;;;;;;;12.27;9.25;;;;;;;10.84;100.00;97690.00;4900308;29;20055;-77
2022/04/01 07:48:14;;;;;;;13.27;8.43;;;;;;;10.98;100.00;97691.25;4900790;29;20068;-77
2022/04/01 07:50:46;;;;;;;12.63;8.10;;;;;;;10.91;100.00;97682.22;4901216;29;20052;-77
2022/04/01 07:53:16;;;;;;;11.70;8.10;;;;;;;10.89;100.00;97685.84;4900240;29;20049;-76
2022/04/01 07:55:48;;;;;;;12.07;7.80;;;;;;;10.91;100.00;97684.88;4883851;29;20486;-76
2022/04/01 07:58:18;;;;;;;11.10;7.18;;;;;;;11.04;100.00;97683.47;4900321;29;20052;-78
2022/04/01 08:00:53;;;;;;;11.05;7.85;;;;;;;10.92;100.00;97684.72;4900495;29;20047;-78
2022/04/01 08:03:22;;;;;;;9.23;6.72;;;;;;;10.83;100.00;97691.81;4900663;29;20127;-77
2022/04/01 08:05:52;;;;;;;10.95;7.10;;;;;;;10.82;100.00;97695.50;4900661;29;20044;-77
2022/04/01 08:08:20;;;;;;;9.50;6.57;;;;;;;10.82;100.00;97692.81;4900574;29;20489;-84
2022/04/01 08:10:49;;;;;;;10.10;6.65;;;;;;;10.63;100.00;97690.34;4900603;29;20045;-77
2022/04/01 08:13:17;;;;;;;10.25;6.85;;;;;;;10.76;100.00;97700.59;4898724;29;20041;-78
2022/04/01 08:15:46;;;;;;;11.68;7.50;;;;;;;10.82;100.00;97705.31;4900684;29;20111;-78
2022/04/01 08:18:19;;;;;;;9.50;7.03;;;;;;;10.82;100.00;97703.50;4900320;29;20044;-78
2022/04/01 08:20:48;;;;;;;11.15;7.88;;;;;;;10.88;100.00;97710.84;4901092;29;20044;-79
2022/04/01 08:23:19;;;;;;;11.48;6.88;;;;;;;10.79;100.00;97710.94;4883315;29;20049;-79
2022/04/01 08:25:47;;;;;;;7.65;4.80;;;;;;;10.65;100.00;97711.50;4899946;29;20104;-77
2022/04/01 08:28:16;;;;;;;7.57;4.97;;;;;;;10.51;100.00;97712.88;4900138;29;20099;-78
2022/04/01 08:30:45;;;;;;;6.60;4.35;;;;;;;10.47;100.00;97716.84;4900159;29;20049;-79
2022/04/01 08:33:17;;;;;;;9.07;5.40;;;;;;;10.43;100.00;97721.66;4900075;29;20041;-77
2022/04/01 08:35:46;;;;;;;8.98;5.03;;;;;;;10.45;100.00;97730.34;4900192;29;20048;-77
2022/04/01 08:38:15;;;;;;;7.85;4.70;;;;;;;10.53;100.00;97729.56;4899818;29;20059;-78
2022/04/01 08:40:45;;;;;;;6.78;4.32;;;;;;;10.56;100.00;97734.59;4899937;29;20135;-79
2022/04/01 08:43:14;;;;;;;7.22;4.28;;;;;;;10.66;100.00;97738.00;4877050;29;20145;-78
2022/04/01 08:45:43;;;;;;;6.97;4.63;;;;;;;10.72;100.00;97748.06;4883954;29;20466;-78
2022/04/01 08:48:12;;;;;;;6.22;3.90;;;;;;;10.40;100.00;97748.59;4880947;29;20150;-77
2022/04/01 08:50:42;;;;;;;5.40;3.50;;;;;;;10.16;100.00;97757.16;4881020;29;20125;-77
2022/04/01 08:53:11;;;;;;;5.50;2.95;;;;;;;10.02;100.00;97762.97;4880580;29;20055;-74
2022/04/01 08:55:40;;;;;;;6.30;3.53;;;;;;;10.04;100.00;97761.03;4880832;29;20204;-74
2022/04/01 08:58:11;;;;;;;7.53;3.60;;;;;;;10.20;100.00;97760.34;4880091;29;20056;-78
2022/04/01 09:00:40;;;;;;;4.32;2.92;;;;;;;10.06;100.00;97755.53;4880662;29;20510;-76
2022/04/01 09:03:10;;;;;;;4.68;3.08;;;;;;;10.14;100.00;97759.13;4880169;29;20479;-81
2022/04/01 09:05:43;;;;;;;4.53;2.97;;;;;;;10.22;100.00;97761.06;4881004;29;20045;-81
2022/04/01 09:08:15;;;;;;;4.28;2.83;;;;;;;10.06;100.00;97771.53;4880720;29;20045;-84
2022/04/01 09:10:53;;;;;;;5.78;3.40;;;;;;;9.95;100.00;97769.91;4880626;29;20104;-74
2022/04/01 09:13:25;;;;;;;4.93;3.53;;;;;;;9.91;100.00;97768.50;4888404;29;20048;-72
2022/04/01 09:15:55;;;;;;;5.13;3.50;;;;;;;10.11;100.00;97767.41;4899290;29;20131;-72
2022/04/01 09:18:38;;;;;;;5.82;3.20;;;;;;;10.26;100.00;97778.44;4882460;29;20056;-72
2022/04/01 09:21:08;;;;;;;5.55;3.22;;;;;;;10.31;100.00;97774.31;4898917;29;20049;-71
2022/04/01 09:23:37;;;;;;;4.45;3.13;;;;;;;10.47;100.00;97770.16;4899202;29;20422;-74
2022/04/01 09:26:07;;;;;;;4.20;2.42;;;;;;;10.34;100.00;97780.34;4898400;29;20497;-76
2022/04/01 09:28:40;;;;;;;4.25;2.50;;;;;;;10.35;100.00;97779.38;4899059;29;20152;-77
2022/04/01 09:31:11;;;;;;;7.07;2.57;;;;;;;10.56;100.00;97786.06;4898931;29;20044;-75
2022/04/01 09:34:06;;;;;;;4.40;2.28;;;;;;;10.65;100.00;97784.31;4898687;29;20045;-75
2022/04/01 09:36:36;;;;;;;3.80;2.13;;;;;;;10.60;100.00;97781.25;4898797;29;20048;-77
2022/04/01 09:39:07;;;;;;;4.00;2.30;;;;;;;10.75;100.00;97779.75;4898726;29;20048;-72
2022/04/01 09:41:39;;;;;;;3.42;1.95;;;;;;;10.76;100.00;97776.09;4898648;29;20051;-73
2022/04/01 09:44:29;;;;;;;6.80;2.33;;;;;;;10.57;100.00;97781.56;4898385;29;20040;-72
2022/04/01 09:47:00;;;;;;;2.78;1.73;;;;;;;10.43;100.00;97785.63;4898651;29;20391;-73
2022/04/01 09:49:35;;;;;;;3.10;1.73;;;;;;;10.43;100.00;97787.44;4898876;29;20131;-77
2022/04/01 09:52:09;;;;;;;3.38;1.65;;;;;;;10.40;100.00;97782.41;4898304;29;20048;-75
2022/04/01 09:54:44;;;;;;;2.22;1.20;;;;;;;10.31;100.00;97790.31;4898641;29;20123;-79
2022/04/01 09:57:14;;;;;;;2.15;1.35;;;;;;;10.37;100.00;97796.03;4898778;29;20053;-81
2022/04/01 09:59:44;;;;;;;2.85;1.58;;;;;;;10.32;100.00;97794.66;4898913;29;20052;-81
2022/04/01 10:02:13;;;;;;;3.30;1.70;;;;;;;10.38;100.00;97803.03;4881320;29;20088;-79
2022/04/01 10:04:42;;;;;;;4.93;1.83;;;;;;;10.16;100.00;97802.44;4881688;29;20053;-80
2022/04/01 10:07:12;;;;;;;2.65;1.75;;;;;;;10.28;100.00;97800.44;4898154;29;20053;-79
2022/04/01 10:09:43;;;;;;;3.30;2.05;;;;;;;10.14;100.00;97796.44;4898097;29;20490;-78
2022/04/01 10:12:36;;;;;;;4.72;2.42;;;;;;;10.04;100.00;97795.66;4898159;29;20067;-77
2022/04/01 10:15:10;;;;;;;3.40;2.30;;;;;;;9.86;100.00;97800.91;4897999;29;20055;-77
2022/04/01 10:17:56;;;;;;;3.20;2.13;;;;;;;10.04;100.00;97803.66;4898085;29;20040;-78
2022/04/01 10:20:29;;;;;;;4.55;2.67;;;;;;;9.83;100.00;97803.84;4897770;29;20044;-78
2022/04/01 10:23:03;;;;;;;5.53;3.15;;;;;;;9.80;100.00;97809.47;4897929;29;20052;-78
2022/04/01 10:25:45;;;;;;;5.07;2.85;;;;;;;9.96;100.00;97808.88;4898175;29;20120;-79
2022/04/01 10:28:14;;;;;;;4.50;2.55;;;;;;;10.16;100.00;97810.44;4897452;29;20063;-75
2022/04/01 10:30:53;;;;;;;4.57;3.03;;;;;;;10.19;100.00;97819.94;4897634;29;20079;-76
2022/04/01 10:33:24;;;;;;;6.00;3.55;;;;;;;9.99;100.00;97819.22;4897377;29;20474;-76
2022/04/01 10:35:54;;;;;;;5.47;3.15;;;;;;;10.04;100.00;97822.28;4897568;29;20045;-76
2022/04/01 10:38:28;;;;;;;4.95;3.20;;;;;;;9.95;100.00;97823.16;4896975;29;20055;-75
2022/04/01 10:41:11;;;;;;;4.93;3.08;;;;;;;9.82;100.00;97827.97;4897366;29;20045;-79
2022/04/01 10:43:41;;;;;;;6.10;3.38;;;;;;;9.83;100.00;97826.97;4897758;29;20044;-78
2022/04/01 10:46:13;;;;;;;6.00;3.20;;;;;;;9.68;100.00;97824.81;4897252;29;20076;-77
2022/04/01 10:52:05;;;;;;;5.57;3.85;;;;;;;9.69;100.00;97836.28;4897878;29;20048;-79
2022/04/01 10:54:42;;;;;;;6.72;3.53;;;;;;;9.75;100.00;97833.91;4898610;29;20043;-78
2022/04/01 10:57:25;;;;;;;7.53;3.92;;;;;;;9.79;100.00;97841.59;4897646;29;20524;-79
2022/04/01 10:59:54;;;;;;;6.18;3.75;;;;;;;10.03;100.00;97841.88;4897470;29;20172;-81
2022/04/01 11:02:24;;;;;;;7.30;3.70;;;;;;;10.30;100.00;97839.25;4897760;29;20036;-80
2022/04/01 11:04:53;;;;;;;6.13;3.70;;;;;;;10.11;100.00;97839.31;4881099;29;20068;-77
2022/04/01 11:07:33;;;;;;;5.80;3.78;;;;;;;10.15;100.00;97845.22;4899814;29;20049;-78
2022/04/01 11:10:07;;;;;;;6.95;2.70;;;;;;;9.93;100.00;97847.25;4901451;29;20387;-77
2022/04/01 11:12:39;;;;;;;6.18;3.70;;;;;;;9.99;100.00;97862.66;4882846;29;20085;-77
2022/04/01 11:15:25;;;;;;;5.47;3.67;;;;;;;9.73;100.00;97851.81;4901168;29;20049;-82
2022/04/01 11:18:05;;;;;;;5.15;3.35;;;;;;;9.84;100.00;97861.44;4901620;29;20044;-81
2022/04/01 11:20:35;;;;;;;4.53;2.90;;;;;;;9.63;100.00;97860.81;4909425;29;20052;-77
2022/04/01 11:23:07;;;;;;;5.90;2.95;;;;;;;9.66;100.00;97856.06;4911834;29;20044;-84
2022/04/01 11:25:54;;;;;;;5.78;3.60;;;;;;;9.53;100.00;97855.53;4902907;29;20117;-76
2022/04/01 11:28:26;;;;;;;7.15;4.07;;;;;;;9.78;100.00;97855.88;4900659;29;20412;-77
2022/04/01 11:31:16;;;;;;;6.30;4.13;;;;;;;9.87;100.00;97853.19;4901039;29;20051;-75
2022/04/01 11:34:07;;;;;;;5.97;4.03;;;;;;;9.91;100.00;97853.72;4884486;29;20055;-75
2022/04/01 11:36:35;;;;;;;8.70;4.80;;;;;;;9.72;100.00;97858.13;4901093;29;20052;-77
2022/04/01 11:39:06;;;;;;;8.23;5.05;;;;;;;9.87;100.00;97863.00;4901009;29;20124;-77
2022/04/01 11:41:48;;;;;;;7.68;4.25;;;;;;;9.66;100.00;97861.38;4900936;29;20095;-77
2022/04/01 11:44:17;;;;;;;6.60;4.45;;;;;;;9.66;100.00;97865.88;4892259;29;20565;-78
2022/04/01 11:46:53;;;;;;;8.38;5.00;;;;;;;9.68;100.00;97850.59;4900640;29;20045;-75